Time;durP1;ratioP1;P1;durP2;ratioP2;P2;SDS_P1;SDS_P2;PMS_P1;PMS_P2;Temp;Humidity;BMP_temperature;BMP_pressure;BME280_temperature;BME280_humidity;BME280_pressure;Samples;Min_cycle;Max_cycle;Signal;HPM_P1;HPM_P2
2022/08/04 00:01:23;;;;;;;1.60;1.50;;;;;;;;;;5074387;28;20967;-82
2022/08/04 00:03:59;;;;;;;1.60;1.50;;;;;;;;;;5074063;28;20710;-82
2022/08/04 00:06:25;;;;;;;2.50;1.42;;;;;;;;;;5074485;28;20384;-82
2022/08/04 00:09:00;;;;;;;2.00;1.80;;;;;;;;;;5074129;28;20402;-82
2022/08/04 00:11:29;;;;;;;1.50;1.40;;;;;;;;;;5074158;28;20406;-82
2022/08/04 00:14:04;;;;;;;1.70;1.60;;;;;;;;;;5074068;28;20375;-82
2022/08/04 00:16:33;;;;;;;2.40;1.60;;;;;;;;;;5074338;28;20387;-82
2022/08/04 00:19:03;;;;;;;1.63;1.53;;;;;;;;;;5073875;28;20410;-82
2022/08/04 00:21:31;;;;;;;2.00;1.65;;;;;;;;;;5073969;28;20879;-82
2022/08/04 00:23:58;;;;;;;2.10;1.60;;;;;;;;;;5060898;28;20381;-82
2022/08/04 00:26:24;;;;;;;1.75;1.60;;;;;;;;;;5058910;28;20384;-82
2022/08/04 00:28:50;;;;;;;3.40;1.57;;;;;;;;;;5073935;28;20437;-82
2022/08/04 00:31:17;;;;;;;1.57;1.47;;;;;;;;;;5073716;28;20458;-82
2022/08/04 00:33:44;;;;;;;1.60;1.50;;;;;;;;;;5073728;28;20929;-82
2022/08/04 00:36:11;;;;;;;1.70;1.60;;;;;;;;;;5061756;28;20425;-82
2022/08/04 00:38:40;;;;;;;1.60;1.50;;;;;;;;;;5073525;28;20415;-82
2022/08/04 00:41:06;;;;;;;3.88;1.73;;;;;;;;;;5059310;28;20386;-82
2022/08/04 00:43:33;;;;;;;1.80;1.50;;;;;;;;;;5073495;28;20380;-82
2022/08/04 00:45:59;;;;;;;1.85;1.73;;;;;;;;;;5073586;28;20455;-82
2022/08/04 00:48:37;;;;;;;1.90;1.80;;;;;;;;;;5068972;28;20850;-82
2022/08/04 00:51:06;;;;;;;1.60;1.50;;;;;;;;;;5057239;28;20527;-82
2022/08/04 00:53:32;;;;;;;1.70;1.60;;;;;;;;;;5062208;28;20397;-83
2022/08/04 00:56:24;;;;;;;1.77;1.67;;;;;;;;;;5058708;28;20495;-81
2022/08/04 00:59:03;;;;;;;1.85;1.73;;;;;;;;;;5028494;28;20911;-82
2022/08/04 01:01:44;;;;;;;2.80;1.80;;;;;;;;;;5070256;28;20371;-81
2022/08/04 01:04:16;;;;;;;1.70;1.60;;;;;;;;;;5071395;28;20372;-81
2022/08/04 01:06:42;;;;;;;2.03;1.60;;;;;;;;;;5071926;28;20406;-81
2022/08/04 01:09:26;;;;;;;2.40;1.65;;;;;;;;;;5071125;28;20410;-81
2022/08/04 01:11:52;;;;;;;1.83;1.70;;;;;;;;;;5073196;28;20380;-81
2022/08/04 01:14:37;;;;;;;1.90;1.60;;;;;;;;;;5072895;28;20391;-82
2022/08/04 01:17:17;;;;;;;1.75;1.65;;;;;;;;;;5072806;28;20367;-81
2022/08/04 01:19:54;;;;;;;2.20;1.60;;;;;;;;;;5072842;28;20403;-81
2022/08/04 01:22:32;;;;;;;1.58;1.48;;;;;;;;;;5057742;28;20743;-81
2022/08/04 01:24:59;;;;;;;1.73;1.60;;;;;;;;;;5047688;28;20388;-81
2022/08/04 01:27:46;;;;;;;2.80;1.60;;;;;;;;;;5053468;28;20375;-81
2022/08/04 01:30:12;;;;;;;2.05;1.55;;;;;;;;;;5049671;28;20521;-81
2022/08/04 01:32:40;;;;;;;1.58;1.48;;;;;;;;;;5072555;28;20384;-81
2022/08/04 01:35:27;;;;;;;1.80;1.70;;;;;;;;;;5072582;28;20907;-81
2022/08/04 01:38:11;;;;;;;1.80;1.70;;;;;;;;;;5072217;28;20383;-81
2022/08/04 01:40:37;;;;;;;1.80;1.70;;;;;;;;;;5072454;28;20403;-81
2022/08/04 01:43:04;;;;;;;1.60;1.50;;;;;;;;;;5072227;28;20390;-81
2022/08/04 01:45:30;;;;;;;1.77;1.67;;;;;;;;;;5060821;28;20433;-81
2022/08/04 01:47:56;;;;;;;4.10;1.60;;;;;;;;;;5071883;28;20380;-83
2022/08/04 01:50:23;;;;;;;2.13;1.67;;;;;;;;;;5072411;28;20390;-81
2022/08/04 01:52:52;;;;;;;2.00;1.50;;;;;;;;;;5072572;28;20379;-81
2022/08/04 01:55:18;;;;;;;2.15;1.60;;;;;;;;;;5072550;28;20740;-80
2022/08/04 01:57:50;;;;;;;1.90;1.55;;;;;;;;;;5072239;28;20513;-81
2022/08/04 02:00:26;;;;;;;1.90;1.70;;;;;;;;;;5072174;28;20407;-81
2022/08/04 02:02:52;;;;;;;1.95;1.75;;;;;;;;;;5072402;28;20505;-81
2022/08/04 02:05:18;;;;;;;2.03;1.70;;;;;;;;;;5072296;28;20372;-82
2022/08/04 02:08:03;;;;;;;1.85;1.70;;;;;;;;;;5072059;28;20379;-82
2022/08/04 02:10:35;;;;;;;1.73;1.63;;;;;;;;;;5072284;28;20434;-82
2022/08/04 02:13:09;;;;;;;1.90;1.67;;;;;;;;;;5072285;28;20445;-82
2022/08/04 02:15:41;;;;;;;2.10;1.60;;;;;;;;;;5072284;28;20404;-82
2022/08/04 02:18:06;;;;;;;1.60;1.50;;;;;;;;;;5072125;28;20917;-82
2022/08/04 02:20:42;;;;;;;1.90;1.60;;;;;;;;;;5072326;28;20486;-82
2022/08/04 02:23:15;;;;;;;2.17;1.45;;;;;;;;;;5072453;28;20425;-82
2022/08/04 02:25:53;;;;;;;1.80;1.70;;;;;;;;;;5071970;28;20403;-82
2022/08/04 02:28:19;;;;;;;2.55;1.60;;;;;;;;;;5061667;28;20483;-82
2022/08/04 02:30:51;;;;;;;2.15;1.70;;;;;;;;;;5049599;28;20442;-82
2022/08/04 02:33:19;;;;;;;1.80;1.70;;;;;;;;;;5071611;28;20457;-82
2022/08/04 02:35:45;;;;;;;3.63;1.53;;;;;;;;;;5070657;28;20938;-82
2022/08/04 02:38:32;;;;;;;3.20;1.60;;;;;;;;;;5061600;28;20487;-82
2022/08/04 02:41:00;;;;;;;1.75;1.60;;;;;;;;;;5071776;28;20903;-82
2022/08/04 02:43:27;;;;;;;1.70;1.60;;;;;;;;;;5071497;28;20445;-82
2022/08/04 02:45:55;;;;;;;2.20;1.80;;;;;;;;;;5071245;28;20375;-82
2022/08/04 02:48:24;;;;;;;1.85;1.75;;;;;;;;;;5071759;28;20375;-81
2022/08/04 02:50:50;;;;;;;2.58;1.83;;;;;;;;;;5071891;28;20729;-82
2022/08/04 02:53:17;;;;;;;2.70;1.65;;;;;;;;;;5059311;28;20381;-82
2022/08/04 02:55:44;;;;;;;2.30;1.75;;;;;;;;;;5070351;28;20395;-81
2022/08/04 02:58:12;;;;;;;2.55;1.73;;;;;;;;;;5071761;28;20376;-82
2022/08/04 03:00:38;;;;;;;1.35;1.25;;;;;;;;;;5073051;28;20775;-82
2022/08/04 03:03:07;;;;;;;1.65;1.55;;;;;;;;;;5075380;28;20376;-82
2022/08/04 03:05:45;;;;;;;1.80;1.70;;;;;;;;;;5075300;28;20386;-82
2022/08/04 03:08:14;;;;;;;1.88;1.77;;;;;;;;;;5075737;28;20406;-81
2022/08/04 03:10:55;;;;;;;2.55;1.50;;;;;;;;;;5075274;28;20388;-82
2022/08/04 03:13:35;;;;;;;1.85;1.75;;;;;;;;;;5075140;28;20448;-82
2022/08/04 03:16:19;;;;;;;2.00;1.80;;;;;;;;;;5075098;28;20786;-82
2022/08/04 03:18:52;;;;;;;1.90;1.70;;;;;;;;;;5074891;28;20407;-82
2022/08/04 03:21:36;;;;;;;2.15;1.80;;;;;;;;;;5074996;28;20387;-82
2022/08/04 03:24:13;;;;;;;1.73;1.58;;;;;;;;;;5075133;28;20396;-82
2022/08/04 03:26:57;;;;;;;1.85;1.75;;;;;;;;;;5075221;28;20372;-81
2022/08/04 03:29:32;;;;;;;1.73;1.63;;;;;;;;;;5074920;28;20463;-82
2022/08/04 03:32:17;;;;;;;1.77;1.67;;;;;;;;;;5074914;28;20462;-82
2022/08/04 03:34:52;;;;;;;1.70;1.60;;;;;;;;;;5074824;28;20382;-82
2022/08/04 03:37:21;;;;;;;2.22;1.63;;;;;;;;;;5060215;28;20462;-82
2022/08/04 03:40:06;;;;;;;2.17;1.80;;;;;;;;;;5074549;28;20482;-82
2022/08/04 03:42:50;;;;;;;1.70;1.60;;;;;;;;;;5062457;28;20449;-82
2022/08/04 03:45:19;;;;;;;1.75;1.65;;;;;;;;;;5047606;28;20376;-82
2022/08/04 03:48:04;;;;;;;1.70;1.60;;;;;;;;;;5074565;28;20463;-82
2022/08/04 03:50:42;;;;;;;2.70;1.70;;;;;;;;;;5074543;28;20472;-82
2022/08/04 03:53:20;;;;;;;3.23;1.90;;;;;;;;;;5074490;28;20375;-82
2022/08/04 03:55:46;;;;;;;1.80;1.70;;;;;;;;;;5069165;28;20457;-82
2022/08/04 03:58:21;;;;;;;1.90;1.80;;;;;;;;;;5065460;28;20415;-82
2022/08/04 04:00:47;;;;;;;1.70;1.60;;;;;;;;;;5074249;28;20395;-82
2022/08/04 04:03:25;;;;;;;1.88;1.77;;;;;;;;;;5074261;28;20718;-82
2022/08/04 04:05:54;;;;;;;2.22;1.90;;;;;;;;;;5074141;28;20383;-82
2022/08/04 04:08:26;;;;;;;2.00;1.80;;;;;;;;;;5074234;28;20425;-82
2022/08/04 04:10:52;;;;;;;1.90;1.80;;;;;;;;;;5073996;28;20791;-82
2022/08/04 04:13:24;;;;;;;1.98;1.80;;;;;;;;;;5074157;28;20411;-82
2022/08/04 04:15:56;;;;;;;1.85;1.75;;;;;;;;;;5059759;28;20402;-82
2022/08/04 04:18:25;;;;;;;1.95;1.75;;;;;;;;;;5052014;28;20409;-81
2022/08/04 04:21:10;;;;;;;1.88;1.77;;;;;;;;;;5049426;28;20441;-82
2022/08/04 04:23:45;;;;;;;1.77;1.67;;;;;;;;;;5072990;28;20467;-82
2022/08/04 04:26:30;;;;;;;1.95;1.77;;;;;;;;;;5073053;28;20388;-82
2022/08/04 04:29:08;;;;;;;2.35;1.67;;;;;;;;;;5073058;28;20861;-82
2022/08/04 04:31:53;;;;;;;1.80;1.70;;;;;;;;;;5058323;28;20388;-82
2022/08/04 04:34:22;;;;;;;2.20;1.90;;;;;;;;;;5073653;28;20717;-82
2022/08/04 04:37:10;;;;;;;1.88;1.70;;;;;;;;;;5067878;28;20404;-82
2022/08/04 04:39:36;;;;;;;2.08;1.60;;;;;;;;;;5073783;28;20486;-82
2022/08/04 04:42:02;;;;;;;1.83;1.73;;;;;;;;;;5073597;28;20467;-82
2022/08/04 04:44:34;;;;;;;2.30;1.90;;;;;;;;;;5073612;28;20375;-82
2022/08/04 04:47:06;;;;;;;2.40;1.75;;;;;;;;;;5073401;28;20868;-82
2022/08/04 04:49:37;;;;;;;1.88;1.70;;;;;;;;;;5073746;28;20475;-82
2022/08/04 04:52:12;;;;;;;1.73;1.60;;;;;;;;;;5073388;28;20469;-82
2022/08/04 04:54:45;;;;;;;2.00;1.80;;;;;;;;;;5055037;28;20385;-82
2022/08/04 04:57:14;;;;;;;1.90;1.80;;;;;;;;;;5056969;28;20377;-82
2022/08/04 04:59:47;;;;;;;1.80;1.70;;;;;;;;;;5071840;28;20892;-82
2022/08/04 05:02:13;;;;;;;1.98;1.88;;;;;;;;;;5073066;28;20407;-82
2022/08/04 05:05:03;;;;;;;2.72;2.00;;;;;;;;;;5060216;28;20376;-82
2022/08/04 05:07:51;;;;;;;2.30;2.10;;;;;;;;;;5068156;28;20739;-82
2022/08/04 05:10:20;;;;;;;2.95;2.08;;;;;;;;;;5065610;28;20386;-82
2022/08/04 05:13:02;;;;;;;2.10;1.90;;;;;;;;;;5066886;28;20393;-82
2022/08/04 05:15:31;;;;;;;1.98;1.75;;;;;;;;;;5061723;28;20425;-82
2022/08/04 05:17:58;;;;;;;1.77;1.52;;;;;;;;;;5064433;28;20381;-82
2022/08/04 05:20:33;;;;;;;2.03;1.80;;;;;;;;;;5070798;28;20414;-82
2022/08/04 05:23:02;;;;;;;1.98;1.88;;;;;;;;;;5062173;28;20467;-82
2022/08/04 05:25:33;;;;;;;2.10;1.90;;;;;;;;;;5063941;28;20384;-81
2022/08/04 05:28:05;;;;;;;3.92;1.98;;;;;;;;;;5062459;28;20429;-81
2022/08/04 05:30:34;;;;;;;2.05;1.70;;;;;;;;;;5069085;28;20425;-81
2022/08/04 05:33:06;;;;;;;2.78;1.90;;;;;;;;;;5049779;28;20400;-81
2022/08/04 05:35:51;;;;;;;1.70;1.60;;;;;;;;;;5049063;28;20879;-81
2022/08/04 05:38:20;;;;;;;2.15;1.92;;;;;;;;;;5070069;28;20471;-81
2022/08/04 05:40:46;;;;;;;2.92;1.90;;;;;;;;;;5071324;28;20415;-80
2022/08/04 05:43:12;;;;;;;1.75;1.65;;;;;;;;;;5072358;28;20383;-81
2022/08/04 05:45:39;;;;;;;2.30;1.90;;;;;;;;;;5071823;28;20407;-81
2022/08/04 05:48:07;;;;;;;2.03;1.83;;;;;;;;;;5071409;28;20368;-81
2022/08/04 05:50:33;;;;;;;3.08;2.00;;;;;;;;;;5068172;28;20724;-82
2022/08/04 05:53:00;;;;;;;2.40;2.05;;;;;;;;;;5052363;28;20392;-81
2022/08/04 05:55:27;;;;;;;2.83;2.17;;;;;;;;;;5068564;28;20376;-81
2022/08/04 05:57:54;;;;;;;3.25;2.00;;;;;;;;;;5072251;28;20380;-81
2022/08/04 06:00:20;;;;;;;2.73;2.00;;;;;;;;;;5067210;28;21031;-80
2022/08/04 06:02:47;;;;;;;2.42;1.80;;;;;;;;;;5052064;28;20894;-81
2022/08/04 06:05:14;;;;;;;2.35;1.75;;;;;;;;;;5068519;28;20380;-81
2022/08/04 06:07:41;;;;;;;3.25;1.95;;;;;;;;;;5072133;28;20391;-81
2022/08/04 06:10:07;;;;;;;1.95;1.85;;;;;;;;;;5072205;28;20430;-82
2022/08/04 06:12:40;;;;;;;2.30;2.10;;;;;;;;;;5072114;28;20962;-82
2022/08/04 06:15:07;;;;;;;2.35;2.15;;;;;;;;;;5072119;28;20376;-81
2022/08/04 06:17:37;;;;;;;2.15;1.95;;;;;;;;;;5071907;28;20868;-81
2022/08/04 06:20:05;;;;;;;3.35;2.55;;;;;;;;;;5072285;28;20431;-81
2022/08/04 06:22:32;;;;;;;2.17;1.75;;;;;;;;;;5064362;28;20377;-81
2022/08/04 06:24:58;;;;;;;2.22;1.70;;;;;;;;;;5072116;28;20425;-81
2022/08/04 06:27:25;;;;;;;1.70;1.60;;;;;;;;;;5071986;28;20383;-81
2022/08/04 06:29:53;;;;;;;1.88;1.73;;;;;;;;;;5072324;28;20909;-81
2022/08/04 06:32:46;;;;;;;1.73;1.55;;;;;;;;;;5072394;28;20383;-79
2022/08/04 06:35:14;;;;;;;2.50;2.00;;;;;;;;;;5068116;28;20404;-79
2022/08/04 06:37:41;;;;;;;2.25;1.60;;;;;;;;;;5069697;28;20407;-79
2022/08/04 06:40:07;;;;;;;2.08;1.88;;;;;;;;;;5062043;28;20915;-79
2022/08/04 06:42:34;;;;;;;2.10;1.60;;;;;;;;;;5075913;28;20406;-79
2022/08/04 06:45:02;;;;;;;1.58;1.48;;;;;;;;;;5075319;28;21553;-79
2022/08/04 06:47:29;;;;;;;1.65;1.52;;;;;;;;;;5065353;28;20393;-80
2022/08/04 06:49:56;;;;;;;2.38;1.50;;;;;;;;;;5055668;28;20374;-80
2022/08/04 06:52:22;;;;;;;1.95;1.73;;;;;;;;;;5058805;28;20749;-80
2022/08/04 06:54:49;;;;;;;1.83;1.65;;;;;;;;;;5054634;28;20866;-80
2022/08/04 06:57:26;;;;;;;1.55;1.45;;;;;;;;;;5056018;28;20398;-80
2022/08/04 06:59:58;;;;;;;1.90;1.60;;;;;;;;;;5065837;28;20495;-80
2022/08/04 07:02:25;;;;;;;2.73;1.60;;;;;;;;;;5053475;28;20392;-81
2022/08/04 07:04:52;;;;;;;2.80;1.52;;;;;;;;;;5065293;28;20379;-82
2022/08/04 07:07:18;;;;;;;2.60;1.60;;;;;;;;;;5074182;28;20391;-82
2022/08/04 07:09:45;;;;;;;1.77;1.60;;;;;;;;;;5065945;28;20390;-81
2022/08/04 07:12:11;;;;;;;1.85;1.60;;;;;;;;;;5069402;28;20419;-81
2022/08/04 07:14:38;;;;;;;1.70;1.30;;;;;;;;;;5075635;28;20929;-81
2022/08/04 07:17:06;;;;;;;3.00;2.08;;;;;;;;;;5075113;28;20402;-81
2022/08/04 07:19:33;;;;;;;3.78;3.45;;;;;;;;;;5074888;28;20407;-81
2022/08/04 07:22:06;;;;;;;9.30;7.13;;;;;;;;;;5075006;28;20384;-81
2022/08/04 07:24:33;;;;;;;13.40;11.38;;;;;;;;;;5074831;28;20837;-82
2022/08/04 07:26:59;;;;;;;12.18;10.88;;;;;;;;;;5075170;28;20379;-81
2022/08/04 07:29:26;;;;;;;10.27;9.23;;;;;;;;;;5060746;28;20734;-81
2022/08/04 07:31:53;;;;;;;12.20;10.18;;;;;;;;;;5063774;28;20376;-82
2022/08/04 07:34:19;;;;;;;18.80;12.07;;;;;;;;;;5064687;28;20456;-81
2022/08/04 07:36:45;;;;;;;17.20;10.93;;;;;;;;;;5074462;28;20390;-82
2022/08/04 07:39:11;;;;;;;15.17;9.50;;;;;;;;;;5074736;28;20738;-81
2022/08/04 07:41:37;;;;;;;11.38;8.18;;;;;;;;;;5074635;28;20380;-81
2022/08/04 07:44:04;;;;;;;13.10;9.07;;;;;;;;;;5074593;28;20375;-81
2022/08/04 07:46:30;;;;;;;13.80;8.75;;;;;;;;;;5073759;28;20403;-82
2022/08/04 07:48:58;;;;;;;14.07;7.63;;;;;;;;;;5074849;28;20395;-81
2022/08/04 07:51:24;;;;;;;4.97;4.10;;;;;;;;;;5074417;28;20406;-81
2022/08/04 07:53:50;;;;;;;6.80;4.40;;;;;;;;;;5071341;28;20450;-82
2022/08/04 07:56:16;;;;;;;5.70;3.90;;;;;;;;;;5063495;28;20483;-81
2022/08/04 07:58:42;;;;;;;5.03;4.18;;;;;;;;;;5059001;28;20382;-81
2022/08/04 08:01:09;;;;;;;3.95;3.55;;;;;;;;;;5060480;28;20384;-82
2022/08/04 08:03:35;;;;;;;5.53;3.90;;;;;;;;;;5074261;28;20432;-82
2022/08/04 08:06:01;;;;;;;4.97;4.50;;;;;;;;;;5074048;28;20380;-81
2022/08/04 08:08:27;;;;;;;5.50;4.47;;;;;;;;;;5074167;28;20387;-82
2022/08/04 08:10:53;;;;;;;4.75;3.80;;;;;;;;;;5074027;28;20757;-82
2022/08/04 08:13:19;;;;;;;8.48;4.13;;;;;;;;;;5064769;28;20381;-82
2022/08/04 08:15:46;;;;;;;8.00;4.40;;;;;;;;;;5058861;28;20486;-82
2022/08/04 08:18:12;;;;;;;4.50;4.10;;;;;;;;;;5066742;28;20381;-82
2022/08/04 08:20:38;;;;;;;4.55;4.15;;;;;;;;;;5067782;28;20465;-82
2022/08/04 08:23:04;;;;;;;4.38;3.97;;;;;;;;;;5073809;28;20458;-82
2022/08/04 08:25:32;;;;;;;3.92;3.30;;;;;;;;;;5073951;28;20728;-82
2022/08/04 08:27:58;;;;;;;2.92;2.72;;;;;;;;;;5073786;28;20410;-81
2022/08/04 08:30:24;;;;;;;3.85;3.03;;;;;;;;;;5073780;28;20384;-82
2022/08/04 08:32:51;;;;;;;3.08;2.88;;;;;;;;;;5073671;28;20438;-82
2022/08/04 08:35:17;;;;;;;3.60;3.30;;;;;;;;;;5073683;28;20454;-82
2022/08/04 08:37:55;;;;;;;4.50;3.10;;;;;;;;;;5073242;28;20426;-82
2022/08/04 08:40:21;;;;;;;3.90;3.00;;;;;;;;;;5073480;28;20435;-82
2022/08/04 08:43:20;;;;;;;3.28;2.97;;;;;;;;;;5073583;28;20411;-82
2022/08/04 08:45:52;;;;;;;3.25;2.70;;;;;;;;;;5040102;28;20388;-82
2022/08/04 08:48:37;;;;;;;3.50;3.20;;;;;;;;;;5073454;28;20403;-82
2022/08/04 08:51:15;;;;;;;3.95;3.20;;;;;;;;;;5073267;28;20446;-82
2022/08/04 08:53:49;;;;;;;3.80;3.40;;;;;;;;;;5073312;28;20803;-82
2022/08/04 08:56:34;;;;;;;3.50;3.15;;;;;;;;;;5073407;28;20857;-82
2022/08/04 08:59:03;;;;;;;6.40;4.55;;;;;;;;;;5072011;28;20518;-82
2022/08/04 09:01:35;;;;;;;5.22;4.00;;;;;;;;;;5073093;28;20376;-82
2022/08/04 09:04:07;;;;;;;3.60;3.20;;;;;;;;;;5073024;28;20378;-82
2022/08/04 09:06:36;;;;;;;3.15;2.72;;;;;;;;;;5073310;28;20425;-82
2022/08/04 09:09:40;;;;;;;4.85;3.08;;;;;;;;;;5057737;28;20827;-82
2022/08/04 09:12:15;;;;;;;7.35;3.20;;;;;;;;;;4983785;28;20396;-82
2022/08/04 09:14:44;;;;;;;3.13;2.92;;;;;;;;;;4989624;28;20401;-82
2022/08/04 09:17:13;;;;;;;3.42;3.10;;;;;;;;;;4985108;28;20409;-82
2022/08/04 09:19:44;;;;;;;4.28;3.60;;;;;;;;;;4972192;28;20953;-82
2022/08/04 09:22:16;;;;;;;4.05;3.40;;;;;;;;;;4972264;28;20813;-82
2022/08/04 09:25:01;;;;;;;4.40;3.47;;;;;;;;;;4970310;28;20390;-82
2022/08/04 09:27:45;;;;;;;3.50;3.20;;;;;;;;;;4966051;28;20384;-82
2022/08/04 09:30:12;;;;;;;3.55;2.88;;;;;;;;;;4980657;28;20463;-82
2022/08/04 09:32:40;;;;;;;3.38;3.08;;;;;;;;;;4974144;28;20925;-83
2022/08/04 09:35:06;;;;;;;3.57;2.70;;;;;;;;;;4971610;28;20399;-82
2022/08/04 09:37:51;;;;;;;4.10;2.55;;;;;;;;;;4978007;28;20399;-82
2022/08/04 09:40:28;;;;;;;2.63;2.43;;;;;;;;;;4978030;28;20446;-82
2022/08/04 09:43:06;;;;;;;6.53;2.78;;;;;;;;;;5031543;28;20404;-82
2022/08/04 09:45:45;;;;;;;3.08;2.70;;;;;;;;;;5065382;28;20389;-83
2022/08/04 09:48:14;;;;;;;2.88;2.58;;;;;;;;;;5056878;28;20865;-83
2022/08/04 09:50:44;;;;;;;2.88;2.58;;;;;;;;;;5070546;28;20376;-83
2022/08/04 09:53:10;;;;;;;7.07;2.38;;;;;;;;;;5056344;28;20383;-83
2022/08/04 09:55:49;;;;;;;8.90;2.60;;;;;;;;;;5059443;28;20390;-83
2022/08/04 09:58:36;;;;;;;3.63;2.42;;;;;;;;;;5070432;28;20445;-83
2022/08/04 10:01:09;;;;;;;3.00;2.08;;;;;;;;;;5058420;28;20403;-82
2022/08/04 10:03:37;;;;;;;6.00;2.30;;;;;;;;;;5071731;28;20853;-83
2022/08/04 10:06:06;;;;;;;2.80;2.53;;;;;;;;;;5071991;28;20376;-83
2022/08/04 10:08:43;;;;;;;3.72;2.42;;;;;;;;;;5068283;28;20372;-82
2022/08/04 10:11:14;;;;;;;3.45;2.20;;;;;;;;;;5063180;28;20374;-82
2022/08/04 10:13:53;;;;;;;3.17;2.50;;;;;;;;;;5054318;28;20734;-83
2022/08/04 10:16:19;;;;;;;4.38;2.15;;;;;;;;;;5059934;28;20384;-82
2022/08/04 10:18:49;;;;;;;4.70;1.75;;;;;;;;;;5071810;28;20891;-83
2022/08/04 10:21:34;;;;;;;3.72;1.90;;;;;;;;;;5071604;28;20376;-84
2022/08/04 10:24:20;;;;;;;2.10;1.90;;;;;;;;;;5067719;28;20967;-83
2022/08/04 10:26:51;;;;;;;2.92;1.90;;;;;;;;;;5071186;28;20372;-83
2022/08/04 10:29:37;;;;;;;2.20;2.00;;;;;;;;;;5070848;28;20470;-83
2022/08/04 10:32:03;;;;;;;2.08;1.88;;;;;;;;;;5061433;28;20466;-83
2022/08/04 10:34:32;;;;;;;2.50;2.03;;;;;;;;;;5071800;28;20387;-83
2022/08/04 10:37:04;;;;;;;2.55;1.85;;;;;;;;;;5070660;28;20418;-84
2022/08/04 10:40:35;;;;;;;3.00;2.10;;;;;;;;;;5070637;28;20502;-85
2022/08/04 10:42:36;;;;;;;4.93;3.10;;;;;;;;;;5070781;28;20868;-84
2022/08/04 10:45:10;;;;;;;4.70;2.10;;;;;;;;;;5071704;28;20390;-84
2022/08/04 10:47:41;;;;;;;2.88;1.85;;;;;;;;;;5071639;28;20378;-84
2022/08/04 10:50:09;;;;;;;2.67;1.60;;;;;;;;;;5071581;28;20384;-84
2022/08/04 10:52:41;;;;;;;2.15;1.73;;;;;;;;;;5071668;28;20428;-84
2022/08/04 10:55:13;;;;;;;3.53;1.90;;;;;;;;;;5071706;28;20474;-84
2022/08/04 10:57:40;;;;;;;3.67;1.98;;;;;;;;;;5060989;28;20401;-84
2022/08/04 11:00:08;;;;;;;2.00;1.70;;;;;;;;;;5052927;28;20975;-84
2022/08/04 11:02:34;;;;;;;2.90;1.60;;;;;;;;;;5056125;28;20415;-84
2022/08/04 11:05:16;;;;;;;17.55;2.55;;;;;;;;;;5071088;28;20407;-84
2022/08/04 11:07:44;;;;;;;1.67;1.42;;;;;;;;;;5071405;28;20861;-84
2022/08/04 11:10:12;;;;;;;2.67;1.50;;;;;;;;;;5071534;28;20384;-84
2022/08/04 11:12:40;;;;;;;1.70;1.50;;;;;;;;;;5060825;28;20769;-84
2022/08/04 11:15:12;;;;;;;2.55;1.80;;;;;;;;;;5051568;28;20385;-83
2022/08/04 11:17:40;;;;;;;2.15;1.63;;;;;;;;;;5053893;28;20442;-84
2022/08/04 11:20:12;;;;;;;3.85;1.85;;;;;;;;;;5051113;28;20417;-84
2022/08/04 11:22:49;;;;;;;1.92;1.63;;;;;;;;;;5053699;28;20381;-84
2022/08/04 11:25:21;;;;;;;1.73;1.50;;;;;;;;;;5053868;28;20413;-81
2022/08/04 11:27:58;;;;;;;1.50;1.40;;;;;;;;;;5053337;28;20396;-82
2022/08/04 11:30:27;;;;;;;3.13;1.40;;;;;;;;;;5055470;28;20377;-85
2022/08/04 11:33:02;;;;;;;2.20;1.35;;;;;;;;;;5052812;28;20385;-82
2022/08/04 11:35:31;;;;;;;1.37;1.20;;;;;;;;;;5053432;28;20385;-82
2022/08/04 11:38:01;;;;;;;3.28;1.10;;;;;;;;;;5053642;28;20769;-83
2022/08/04 11:40:30;;;;;;;1.95;1.10;;;;;;;;;;5074995;28;20734;-82
2022/08/04 11:43:00;;;;;;;1.27;1.17;;;;;;;;;;5060722;28;20468;-82
2022/08/04 11:45:47;;;;;;;1.10;1.00;;;;;;;;;;5074660;28;20725;-82
2022/08/04 11:48:16;;;;;;;3.15;1.20;;;;;;;;;;5074922;28;20457;-82
2022/08/04 11:50:43;;;;;;;2.90;1.25;;;;;;;;;;5074541;28;20880;-84
2022/08/04 11:53:15;;;;;;;3.35;1.00;;;;;;;;;;5066197;28;20385;-82
2022/08/04 11:55:42;;;;;;;2.10;1.30;;;;;;;;;;5058758;28;20379;-83
2022/08/04 11:58:08;;;;;;;1.73;1.20;;;;;;;;;;5064085;28;20377;-82
2022/08/04 12:00:37;;;;;;;4.13;1.25;;;;;;;;;;5070812;28;20884;-82
2022/08/04 12:03:24;;;;;;;1.98;1.20;;;;;;;;;;5074395;28;20415;-82
2022/08/04 12:05:50;;;;;;;1.77;1.20;;;;;;;;;;5074255;28;20403;-82
2022/08/04 12:08:29;;;;;;;1.83;1.20;;;;;;;;;;5065980;28;20485;-83
2022/08/04 12:11:13;;;;;;;2.58;1.38;;;;;;;;;;5060063;28;20401;-83
2022/08/04 12:13:59;;;;;;;1.50;1.27;;;;;;;;;;5074263;28;20939;-82
2022/08/04 12:16:25;;;;;;;1.60;1.10;;;;;;;;;;5074090;28;20380;-83
2022/08/04 12:18:57;;;;;;;3.05;1.30;;;;;;;;;;5052945;28;20403;-83
2022/08/04 12:21:25;;;;;;;3.85;1.75;;;;;;;;;;5073667;28;20856;-83
2022/08/04 12:23:52;;;;;;;6.10;3.53;;;;;;;;;;5073925;28;20756;-82
2022/08/04 12:26:24;;;;;;;2.13;1.33;;;;;;;;;;5069477;28;20400;-81
2022/08/04 12:28:57;;;;;;;3.00;1.77;;;;;;;;;;5062803;28;20428;-82
2022/08/04 12:31:26;;;;;;;3.58;1.95;;;;;;;;;;5072063;28;20437;-83
2022/08/04 12:33:58;;;;;;;2.80;1.10;;;;;;;;;;5073555;28;20382;-83
2022/08/04 12:36:24;;;;;;;1.90;1.40;;;;;;;;;;5072930;28;20465;-83
2022/08/04 12:39:02;;;;;;;1.70;1.10;;;;;;;;;;5073641;28;20403;-83
2022/08/04 12:41:40;;;;;;;2.53;1.50;;;;;;;;;;5073494;28;20459;-83
2022/08/04 12:44:09;;;;;;;2.40;1.10;;;;;;;;;;5073613;28;20861;-83
2022/08/04 12:46:35;;;;;;;1.75;1.20;;;;;;;;;;5070213;28;20378;-83
2022/08/04 12:49:02;;;;;;;2.33;0.93;;;;;;;;;;5053473;28;20431;-83
2022/08/04 12:51:35;;;;;;;2.27;0.90;;;;;;;;;;5053377;28;20381;-82
2022/08/04 12:54:02;;;;;;;1.98;0.95;;;;;;;;;;5061321;28;20377;-83
2022/08/04 12:56:29;;;;;;;1.67;1.10;;;;;;;;;;5053165;28;20866;-82
2022/08/04 12:59:00;;;;;;;2.30;1.10;;;;;;;;;;5070072;28;20426;-81
2022/08/04 13:01:28;;;;;;;2.05;1.00;;;;;;;;;;5073446;28;20408;-83
2022/08/04 13:04:03;;;;;;;1.40;0.90;;;;;;;;;;5073123;28;20376;-83
2022/08/04 13:06:35;;;;;;;1.50;0.98;;;;;;;;;;5073049;28;20775;-83
2022/08/04 13:09:08;;;;;;;1.98;0.85;;;;;;;;;;5063099;28;20381;-83
2022/08/04 13:11:38;;;;;;;2.05;0.93;;;;;;;;;;5050860;28;20423;-83
2022/08/04 13:14:05;;;;;;;2.25;1.02;;;;;;;;;;5053326;28;20393;-83
2022/08/04 13:16:32;;;;;;;2.00;1.20;;;;;;;;;;5071863;28;20375;-83
2022/08/04 13:18:58;;;;;;;3.20;1.25;;;;;;;;;;5066424;28;20376;-82
2022/08/04 13:21:26;;;;;;;1.88;1.27;;;;;;;;;;5070376;28;20702;-82
2022/08/04 13:24:01;;;;;;;4.05;1.30;;;;;;;;;;5052511;28;20404;-83
2022/08/04 13:26:28;;;;;;;1.70;0.90;;;;;;;;;;5060165;28;20407;-84
2022/08/04 13:28:57;;;;;;;1.20;0.88;;;;;;;;;;5055660;28;20389;-84
2022/08/04 13:31:25;;;;;;;1.13;0.73;;;;;;;;;;5065862;28;20385;-83
2022/08/04 13:33:53;;;;;;;0.80;0.80;;;;;;;;;;5053808;28;20386;-83
2022/08/04 13:36:24;;;;;;;1.98;0.55;;;;;;;;;;5052406;28;20404;-83
2022/08/04 13:38:54;;;;;;;0.70;0.60;;;;;;;;;;5052474;28;20376;-83
2022/08/04 13:41:21;;;;;;;2.33;0.75;;;;;;;;;;5056923;28;20995;-84
2022/08/04 13:43:49;;;;;;;0.80;0.60;;;;;;;;;;5051197;28;20403;-83
2022/08/04 13:46:35;;;;;;;2.15;0.60;;;;;;;;;;5066607;28;20437;-83
2022/08/04 13:49:02;;;;;;;1.80;0.60;;;;;;;;;;5072029;28;20379;-83
2022/08/04 13:51:30;;;;;;;2.47;0.80;;;;;;;;;;5067950;28;20407;-83
2022/08/04 13:53:59;;;;;;;0.80;0.60;;;;;;;;;;5054813;28;20433;-83
2022/08/04 13:56:30;;;;;;;1.17;0.70;;;;;;;;;;5053753;28;20392;-83
2022/08/04 13:58:56;;;;;;;0.60;0.60;;;;;;;;;;5053589;28;20372;-83
2022/08/04 14:01:24;;;;;;;1.08;0.77;;;;;;;;;;5053282;28;20516;-83
2022/08/04 14:03:53;;;;;;;2.58;1.00;;;;;;;;;;5054083;28;20382;-83
2022/08/04 14:06:21;;;;;;;1.00;0.80;;;;;;;;;;5052094;28;20846;-83
2022/08/04 14:08:51;;;;;;;3.40;1.30;;;;;;;;;;5050186;28;20381;-83
2022/08/04 14:11:18;;;;;;;2.40;0.90;;;;;;;;;;5048816;28;20427;-82
2022/08/04 14:13:44;;;;;;;1.35;0.70;;;;;;;;;;5049560;28;20460;-83
2022/08/04 14:16:14;;;;;;;1.10;0.73;;;;;;;;;;5050798;28;20472;-83
2022/08/04 14:18:40;;;;;;;2.15;0.70;;;;;;;;;;5051797;28;20440;-83
2022/08/04 14:21:10;;;;;;;4.53;2.10;;;;;;;;;;5051358;28;20409;-83
2022/08/04 14:23:41;;;;;;;1.25;0.65;;;;;;;;;;5062324;28;20394;-82
2022/08/04 14:26:24;;;;;;;1.30;0.60;;;;;;;;;;5066678;28;20383;-81
2022/08/04 14:28:51;;;;;;;0.75;0.60;;;;;;;;;;5063411;28;20376;-83
2022/08/04 14:31:22;;;;;;;1.83;0.70;;;;;;;;;;5071983;28;20371;-83
2022/08/04 14:33:49;;;;;;;1.20;0.70;;;;;;;;;;5072001;28;20376;-83
2022/08/04 14:36:16;;;;;;;2.40;0.90;;;;;;;;;;5071769;28;20395;-83
2022/08/04 14:38:50;;;;;;;1.27;0.60;;;;;;;;;;5056923;28;20781;-83
2022/08/04 14:41:17;;;;;;;0.63;0.63;;;;;;;;;;5052174;28;20394;-82
2022/08/04 14:43:44;;;;;;;1.25;1.02;;;;;;;;;;5057766;28;20379;-83
2022/08/04 14:46:11;;;;;;;1.42;0.70;;;;;;;;;;5053262;28;20436;-83
2022/08/04 14:48:38;;;;;;;0.87;0.70;;;;;;;;;;5058542;28;20376;-82
2022/08/04 14:51:05;;;;;;;1.60;0.80;;;;;;;;;;5071761;28;20376;-83
2022/08/04 14:53:31;;;;;;;1.80;0.68;;;;;;;;;;5071798;28;20372;-83
2022/08/04 14:55:58;;;;;;;1.30;0.60;;;;;;;;;;5073484;28;20372;-83
2022/08/04 14:58:25;;;;;;;1.67;0.80;;;;;;;;;;5075697;28;20714;-83
2022/08/04 15:00:56;;;;;;;0.70;0.70;;;;;;;;;;5075486;28;20474;-83
2022/08/04 15:03:23;;;;;;;1.42;0.80;;;;;;;;;;5068778;28;20393;-83
2022/08/04 15:05:49;;;;;;;0.82;0.65;;;;;;;;;;5058326;28;20376;-83
2022/08/04 15:08:16;;;;;;;1.00;0.60;;;;;;;;;;5075473;28;20399;-83